sensor_id;sensor_type;location;lat;lon;timestamp;P1;durP1;ratioP1;P2;durP2;ratioP2
18716;SDS011;9487;50.892;6.906;2024-02-15T00:01:51;3.37;;;3.07;;
18716;SDS011;9487;50.892;6.906;2024-02-15T00:04:18;4.40;;;3.00;;
18716;SDS011;9487;50.892;6.906;2024-02-15T00:06:47;3.90;;;3.50;;
18716;SDS011;9487;50.892;6.906;2024-02-15T00:09:14;4.50;;;3.37;;
18716;SDS011;9487;50.892;6.906;2024-02-15T00:11:41;3.73;;;3.20;;
18716;SDS011;9487;50.892;6.906;2024-02-15T00:14:09;3.47;;;3.17;;
18716;SDS011;9487;50.892;6.906;2024-02-15T00:16:37;6.60;;;3.30;;
18716;SDS011;9487;50.892;6.906;2024-02-15T00:19:04;4.27;;;3.23;;
18716;SDS011;9487;50.892;6.906;2024-02-15T00:21:31;4.03;;;3.63;;
18716;SDS011;9487;50.892;6.906;2024-02-15T00:24:00;4.57;;;4.03;;
18716;SDS011;9487;50.892;6.906;2024-02-15T00:26:27;4.27;;;3.47;;
18716;SDS011;9487;50.892;6.906;2024-02-15T00:28:54;4.90;;;3.80;;
18716;SDS011;9487;50.892;6.906;2024-02-15T00:31:20;4.37;;;3.90;;
18716;SDS011;9487;50.892;6.906;2024-02-15T00:33:48;4.20;;;3.50;;
18716;SDS011;9487;50.892;6.906;2024-02-15T00:36:15;3.83;;;3.53;;
18716;SDS011;9487;50.892;6.906;2024-02-15T00:38:44;6.37;;;4.03;;
18716;SDS011;9487;50.892;6.906;2024-02-15T00:41:13;4.47;;;3.90;;
18716;SDS011;9487;50.892;6.906;2024-02-15T00:43:39;4.33;;;3.60;;
18716;SDS011;9487;50.892;6.906;2024-02-15T00:46:06;4.20;;;3.77;;
18716;SDS011;9487;50.892;6.906;2024-02-15T00:48:35;7.10;;;4.40;;
18716;SDS011;9487;50.892;6.906;2024-02-15T00:51:02;4.23;;;3.80;;
18716;SDS011;9487;50.892;6.906;2024-02-15T00:53:29;6.33;;;4.03;;
18716;SDS011;9487;50.892;6.906;2024-02-15T00:55:56;4.33;;;3.67;;
18716;SDS011;9487;50.892;6.906;2024-02-15T00:58:24;4.13;;;3.20;;
18716;SDS011;9487;50.892;6.906;2024-02-15T01:00:52;4.60;;;3.37;;
18716;SDS011;9487;50.892;6.906;2024-02-15T01:03:19;4.13;;;3.40;;
18716;SDS011;9487;50.892;6.906;2024-02-15T01:05:46;5.03;;;3.70;;
18716;SDS011;9487;50.892;6.906;2024-02-15T01:08:12;4.53;;;3.50;;
18716;SDS011;9487;50.892;6.906;2024-02-15T01:10:39;6.43;;;3.70;;
18716;SDS011;9487;50.892;6.906;2024-02-15T01:13:06;5.73;;;3.20;;
18716;SDS011;9487;50.892;6.906;2024-02-15T01:15:35;5.47;;;3.67;;
18716;SDS011;9487;50.892;6.906;2024-02-15T01:18:02;6.10;;;3.63;;
18716;SDS011;9487;50.892;6.906;2024-02-15T01:20:29;3.63;;;3.17;;
18716;SDS011;9487;50.892;6.906;2024-02-15T01:22:57;4.47;;;3.80;;
18716;SDS011;9487;50.892;6.906;2024-02-15T01:25:23;5.70;;;3.90;;
18716;SDS011;9487;50.892;6.906;2024-02-15T01:27:53;5.40;;;3.90;;
18716;SDS011;9487;50.892;6.906;2024-02-15T01:30:19;6.00;;;3.97;;
18716;SDS011;9487;50.892;6.906;2024-02-15T01:32:47;4.57;;;3.77;;
18716;SDS011;9487;50.892;6.906;2024-02-15T01:35:14;5.23;;;4.20;;
18716;SDS011;9487;50.892;6.906;2024-02-15T01:37:41;4.73;;;4.00;;
18716;SDS011;9487;50.892;6.906;2024-02-15T01:40:08;6.47;;;4.37;;
18716;SDS011;9487;50.892;6.906;2024-02-15T01:42:37;4.57;;;4.00;;
18716;SDS011;9487;50.892;6.906;2024-02-15T01:45:05;4.43;;;3.30;;
18716;SDS011;9487;50.892;6.906;2024-02-15T01:47:32;5.83;;;3.33;;
18716;SDS011;9487;50.892;6.906;2024-02-15T01:50:02;5.50;;;3.80;;
18716;SDS011;9487;50.892;6.906;2024-02-15T01:52:30;4.93;;;3.80;;
18716;SDS011;9487;50.892;6.906;2024-02-15T01:54:58;5.10;;;3.63;;
18716;SDS011;9487;50.892;6.906;2024-02-15T01:57:26;4.30;;;3.90;;
18716;SDS011;9487;50.892;6.906;2024-02-15T01:59:55;6.03;;;3.60;;
18716;SDS011;9487;50.892;6.906;2024-02-15T02:02:22;4.00;;;3.50;;
18716;SDS011;9487;50.892;6.906;2024-02-15T02:04:51;4.40;;;3.90;;
18716;SDS011;9487;50.892;6.906;2024-02-15T02:07:19;4.77;;;3.43;;
18716;SDS011;9487;50.892;6.906;2024-02-15T02:09:48;5.47;;;3.23;;
18716;SDS011;9487;50.892;6.906;2024-02-15T02:12:16;5.63;;;4.07;;
18716;SDS011;9487;50.892;6.906;2024-02-15T02:14:43;4.90;;;3.70;;
18716;SDS011;9487;50.892;6.906;2024-02-15T02:17:10;6.00;;;4.20;;
18716;SDS011;9487;50.892;6.906;2024-02-15T02:19:38;5.80;;;3.67;;
18716;SDS011;9487;50.892;6.906;2024-02-15T02:22:05;4.67;;;3.63;;
18716;SDS011;9487;50.892;6.906;2024-02-15T02:24:36;4.67;;;3.07;;
18716;SDS011;9487;50.892;6.906;2024-02-15T02:27:13;4.40;;;3.40;;
18716;SDS011;9487;50.892;6.906;2024-02-15T02:29:42;3.20;;;2.90;;
18716;SDS011;9487;50.892;6.906;2024-02-15T02:32:10;5.03;;;3.57;;
18716;SDS011;9487;50.892;6.906;2024-02-15T02:34:37;4.40;;;3.60;;
18716;SDS011;9487;50.892;6.906;2024-02-15T02:37:05;3.60;;;3.20;;
18716;SDS011;9487;50.892;6.906;2024-02-15T02:39:33;3.60;;;3.30;;
18716;SDS011;9487;50.892;6.906;2024-02-15T02:42:00;4.30;;;3.40;;
18716;SDS011;9487;50.892;6.906;2024-02-15T02:44:28;3.60;;;3.30;;
18716;SDS011;9487;50.892;6.906;2024-02-15T02:46:56;3.87;;;3.43;;
18716;SDS011;9487;50.892;6.906;2024-02-15T02:49:23;3.07;;;2.77;;
18716;SDS011;9487;50.892;6.906;2024-02-15T02:51:50;3.83;;;3.23;;
18716;SDS011;9487;50.892;6.906;2024-02-15T02:54:17;4.90;;;3.63;;
18716;SDS011;9487;50.892;6.906;2024-02-15T02:56:44;3.40;;;3.00;;
18716;SDS011;9487;50.892;6.906;2024-02-15T02:59:11;5.00;;;3.37;;
18716;SDS011;9487;50.892;6.906;2024-02-15T03:01:39;3.60;;;3.30;;
18716;SDS011;9487;50.892;6.906;2024-02-15T03:04:06;4.17;;;3.20;;
18716;SDS011;9487;50.892;6.906;2024-02-15T03:06:33;3.27;;;2.93;;
18716;SDS011;9487;50.892;6.906;2024-02-15T03:09:00;3.70;;;2.90;;
18716;SDS011;9487;50.892;6.906;2024-02-15T03:11:32;3.40;;;2.63;;
18716;SDS011;9487;50.892;6.906;2024-02-15T03:13:59;5.50;;;3.07;;
18716;SDS011;9487;50.892;6.906;2024-02-15T03:16:29;4.57;;;3.13;;
18716;SDS011;9487;50.892;6.906;2024-02-15T03:19:00;4.00;;;3.30;;
18716;SDS011;9487;50.892;6.906;2024-02-15T03:21:28;4.43;;;2.57;;
18716;SDS011;9487;50.892;6.906;2024-02-15T03:23:56;3.60;;;2.80;;
18716;SDS011;9487;50.892;6.906;2024-02-15T03:26:29;3.60;;;2.10;;
18716;SDS011;9487;50.892;6.906;2024-02-15T03:28:58;2.80;;;1.97;;
18716;SDS011;9487;50.892;6.906;2024-02-15T03:31:25;2.87;;;2.10;;
18716;SDS011;9487;50.892;6.906;2024-02-15T03:33:52;3.60;;;2.07;;
18716;SDS011;9487;50.892;6.906;2024-02-15T03:36:20;3.93;;;1.93;;
18716;SDS011;9487;50.892;6.906;2024-02-15T03:38:48;4.67;;;2.03;;
18716;SDS011;9487;50.892;6.906;2024-02-15T03:41:15;4.17;;;2.13;;
18716;SDS011;9487;50.892;6.906;2024-02-15T03:43:41;2.90;;;2.23;;
18716;SDS011;9487;50.892;6.906;2024-02-15T03:46:08;3.20;;;2.00;;
18716;SDS011;9487;50.892;6.906;2024-02-15T03:48:37;2.20;;;1.80;;
18716;SDS011;9487;50.892;6.906;2024-02-15T03:51:04;3.53;;;2.20;;
18716;SDS011;9487;50.892;6.906;2024-02-15T03:53:32;2.63;;;1.90;;
18716;SDS011;9487;50.892;6.906;2024-02-15T03:56:02;3.57;;;2.07;;
18716;SDS011;9487;50.892;6.906;2024-02-15T03:58:29;3.00;;;1.60;;
18716;SDS011;9487;50.892;6.906;2024-02-15T04:00:58;3.23;;;1.83;;
18716;SDS011;9487;50.892;6.906;2024-02-15T04:03:24;3.80;;;1.90;;
18716;SDS011;9487;50.892;6.906;2024-02-15T04:05:51;3.70;;;2.03;;
18716;SDS011;9487;50.892;6.906;2024-02-15T04:08:19;2.63;;;1.60;;
18716;SDS011;9487;50.892;6.906;2024-02-15T04:10:48;2.67;;;1.83;;
18716;SDS011;9487;50.892;6.906;2024-02-15T04:13:16;2.70;;;1.73;;
18716;SDS011;9487;50.892;6.906;2024-02-15T04:15:43;3.30;;;2.10;;
18716;SDS011;9487;50.892;6.906;2024-02-15T04:18:12;3.73;;;2.03;;
18716;SDS011;9487;50.892;6.906;2024-02-15T04:20:39;4.73;;;2.40;;
18716;SDS011;9487;50.892;6.906;2024-02-15T04:23:09;4.23;;;2.40;;
18716;SDS011;9487;50.892;6.906;2024-02-15T04:25:38;2.73;;;2.10;;
18716;SDS011;9487;50.892;6.906;2024-02-15T04:28:07;4.90;;;2.70;;
18716;SDS011;9487;50.892;6.906;2024-02-15T04:30:34;4.90;;;2.33;;
18716;SDS011;9487;50.892;6.906;2024-02-15T04:33:03;3.47;;;2.53;;
18716;SDS011;9487;50.892;6.906;2024-02-15T04:35:30;4.70;;;2.40;;
18716;SDS011;9487;50.892;6.906;2024-02-15T04:37:57;4.07;;;2.33;;
18716;SDS011;9487;50.892;6.906;2024-02-15T04:40:24;3.83;;;2.43;;
18716;SDS011;9487;50.892;6.906;2024-02-15T04:42:52;3.30;;;2.10;;
18716;SDS011;9487;50.892;6.906;2024-02-15T04:45:20;3.33;;;2.30;;
18716;SDS011;9487;50.892;6.906;2024-02-15T04:47:48;4.23;;;2.10;;
18716;SDS011;9487;50.892;6.906;2024-02-15T04:50:17;3.37;;;2.40;;
18716;SDS011;9487;50.892;6.906;2024-02-15T04:52:46;7.40;;;2.70;;
18716;SDS011;9487;50.892;6.906;2024-02-15T04:55:13;4.43;;;2.40;;
18716;SDS011;9487;50.892;6.906;2024-02-15T04:57:40;7.07;;;2.53;;
18716;SDS011;9487;50.892;6.906;2024-02-15T05:00:08;4.83;;;2.60;;
18716;SDS011;9487;50.892;6.906;2024-02-15T05:02:38;4.90;;;2.93;;
18716;SDS011;9487;50.892;6.906;2024-02-15T05:05:06;5.53;;;3.00;;
18716;SDS011;9487;50.892;6.906;2024-02-15T05:07:33;5.17;;;2.70;;
18716;SDS011;9487;50.892;6.906;2024-02-15T05:10:00;5.43;;;3.00;;
18716;SDS011;9487;50.892;6.906;2024-02-15T05:12:31;4.10;;;2.47;;
18716;SDS011;9487;50.892;6.906;2024-02-15T05:14:59;7.40;;;3.00;;
18716;SDS011;9487;50.892;6.906;2024-02-15T05:17:26;4.97;;;3.17;;
18716;SDS011;9487;50.892;6.906;2024-02-15T05:19:56;4.27;;;2.60;;
18716;SDS011;9487;50.892;6.906;2024-02-15T05:22:24;4.83;;;2.63;;
18716;SDS011;9487;50.892;6.906;2024-02-15T05:24:53;4.77;;;2.70;;
18716;SDS011;9487;50.892;6.906;2024-02-15T05:27:20;4.40;;;2.83;;
18716;SDS011;9487;50.892;6.906;2024-02-15T05:29:48;5.30;;;3.23;;
18716;SDS011;9487;50.892;6.906;2024-02-15T05:32:18;8.47;;;3.13;;
18716;SDS011;9487;50.892;6.906;2024-02-15T05:34:45;5.03;;;2.80;;
18716;SDS011;9487;50.892;6.906;2024-02-15T05:37:14;3.50;;;3.10;;
18716;SDS011;9487;50.892;6.906;2024-02-15T05:39:41;5.47;;;2.97;;
18716;SDS011;9487;50.892;6.906;2024-02-15T05:42:08;5.77;;;3.27;;
18716;SDS011;9487;50.892;6.906;2024-02-15T05:44:35;6.63;;;2.90;;
18716;SDS011;9487;50.892;6.906;2024-02-15T05:47:02;6.37;;;3.17;;
18716;SDS011;9487;50.892;6.906;2024-02-15T05:49:29;5.87;;;3.10;;
18716;SDS011;9487;50.892;6.906;2024-02-15T05:51:56;6.27;;;3.10;;
18716;SDS011;9487;50.892;6.906;2024-02-15T05:54:25;5.10;;;2.87;;
18716;SDS011;9487;50.892;6.906;2024-02-15T05:56:51;5.17;;;3.03;;
18716;SDS011;9487;50.892;6.906;2024-02-15T05:59:23;5.40;;;2.63;;
18716;SDS011;9487;50.892;6.906;2024-02-15T06:01:50;5.17;;;2.87;;
18716;SDS011;9487;50.892;6.906;2024-02-15T06:04:18;6.53;;;2.90;;
18716;SDS011;9487;50.892;6.906;2024-02-15T06:06:44;4.60;;;2.70;;
18716;SDS011;9487;50.892;6.906;2024-02-15T06:09:13;4.07;;;2.70;;
18716;SDS011;9487;50.892;6.906;2024-02-15T06:11:42;6.40;;;3.20;;
18716;SDS011;9487;50.892;6.906;2024-02-15T06:14:10;7.73;;;2.50;;
18716;SDS011;9487;50.892;6.906;2024-02-15T06:16:41;7.27;;;3.10;;
18716;SDS011;9487;50.892;6.906;2024-02-15T06:19:08;6.50;;;3.20;;
18716;SDS011;9487;50.892;6.906;2024-02-15T06:21:36;5.33;;;2.80;;
18716;SDS011;9487;50.892;6.906;2024-02-15T06:24:02;7.00;;;2.90;;
18716;SDS011;9487;50.892;6.906;2024-02-15T06:26:30;5.77;;;2.80;;
18716;SDS011;9487;50.892;6.906;2024-02-15T06:28:59;6.03;;;2.90;;
18716;SDS011;9487;50.892;6.906;2024-02-15T06:31:44;6.50;;;3.40;;
18716;SDS011;9487;50.892;6.906;2024-02-15T06:34:28;7.40;;;3.00;;
18716;SDS011;9487;50.892;6.906;2024-02-15T06:37:17;5.83;;;2.63;;
18716;SDS011;9487;50.892;6.906;2024-02-15T06:40:19;6.70;;;2.83;;
18716;SDS011;9487;50.892;6.906;2024-02-15T06:42:46;7.63;;;2.97;;
18716;SDS011;9487;50.892;6.906;2024-02-15T06:45:14;6.00;;;2.67;;
18716;SDS011;9487;50.892;6.906;2024-02-15T06:47:41;4.30;;;2.70;;
18716;SDS011;9487;50.892;6.906;2024-02-15T06:50:09;6.90;;;2.73;;
18716;SDS011;9487;50.892;6.906;2024-02-15T06:52:37;5.73;;;2.60;;
18716;SDS011;9487;50.892;6.906;2024-02-15T06:55:06;5.53;;;2.77;;
18716;SDS011;9487;50.892;6.906;2024-02-15T06:57:34;5.60;;;2.60;;
18716;SDS011;9487;50.892;6.906;2024-02-15T07:00:02;5.67;;;2.53;;
18716;SDS011;9487;50.892;6.906;2024-02-15T07:02:33;7.57;;;2.40;;
18716;SDS011;9487;50.892;6.906;2024-02-15T07:05:02;5.63;;;2.30;;
18716;SDS011;9487;50.892;6.906;2024-02-15T07:07:29;3.50;;;2.00;;
18716;SDS011;9487;50.892;6.906;2024-02-15T07:09:56;6.60;;;2.60;;
18716;SDS011;9487;50.892;6.906;2024-02-15T07:12:23;4.83;;;2.60;;
18716;SDS011;9487;50.892;6.906;2024-02-15T07:14:50;5.37;;;2.90;;
18716;SDS011;9487;50.892;6.906;2024-02-15T07:17:19;6.07;;;2.33;;
18716;SDS011;9487;50.892;6.906;2024-02-15T07:19:47;5.43;;;2.67;;
18716;SDS011;9487;50.892;6.906;2024-02-15T07:22:15;7.63;;;2.77;;
18716;SDS011;9487;50.892;6.906;2024-02-15T07:24:42;5.90;;;2.80;;
18716;SDS011;9487;50.892;6.906;2024-02-15T07:27:09;5.50;;;2.53;;
18716;SDS011;9487;50.892;6.906;2024-02-15T07:29:36;5.70;;;2.70;;
18716;SDS011;9487;50.892;6.906;2024-02-15T07:32:03;5.13;;;2.80;;
18716;SDS011;9487;50.892;6.906;2024-02-15T07:34:31;4.77;;;2.40;;
18716;SDS011;9487;50.892;6.906;2024-02-15T07:37:01;5.73;;;2.73;;
18716;SDS011;9487;50.892;6.906;2024-02-15T07:39:37;6.53;;;2.80;;
18716;SDS011;9487;50.892;6.906;2024-02-15T07:42:20;5.70;;;2.60;;
18716;SDS011;9487;50.892;6.906;2024-02-15T07:45:01;7.00;;;2.63;;
18716;SDS011;9487;50.892;6.906;2024-02-15T07:47:33;6.37;;;2.50;;
18716;SDS011;9487;50.892;6.906;2024-02-15T07:50:03;5.67;;;2.60;;
18716;SDS011;9487;50.892;6.906;2024-02-15T07:52:49;6.53;;;2.67;;
18716;SDS011;9487;50.892;6.906;2024-02-15T07:55:17;5.63;;;2.53;;
18716;SDS011;9487;50.892;6.906;2024-02-15T07:57:58;4.23;;;2.60;;
18716;SDS011;9487;50.892;6.906;2024-02-15T08:00:26;5.00;;;2.23;;
18716;SDS011;9487;50.892;6.906;2024-02-15T08:03:07;5.87;;;3.10;;
18716;SDS011;9487;50.892;6.906;2024-02-15T08:05:48;4.73;;;2.60;;
18716;SDS011;9487;50.892;6.906;2024-02-15T08:14:28;6.67;;;2.47;;
18716;SDS011;9487;50.892;6.906;2024-02-15T08:17:12;7.20;;;2.70;;
18716;SDS011;9487;50.892;6.906;2024-02-15T08:20:04;3.60;;;2.07;;
18716;SDS011;9487;50.892;6.906;2024-02-15T08:22:47;4.37;;;2.43;;
18716;SDS011;9487;50.892;6.906;2024-02-15T08:25:18;5.90;;;2.30;;
18716;SDS011;9487;50.892;6.906;2024-02-15T08:27:51;5.17;;;2.07;;
18716;SDS011;9487;50.892;6.906;2024-02-15T08:30:32;4.83;;;2.27;;
18716;SDS011;9487;50.892;6.906;2024-02-15T08:33:04;7.27;;;2.40;;
18716;SDS011;9487;50.892;6.906;2024-02-15T08:35:45;8.10;;;2.87;;
18716;SDS011;9487;50.892;6.906;2024-02-15T08:38:28;4.77;;;2.77;;
18716;SDS011;9487;50.892;6.906;2024-02-15T08:41:02;5.77;;;3.00;;
18716;SDS011;9487;50.892;6.906;2024-02-15T08:46:56;6.10;;;2.73;;
18716;SDS011;9487;50.892;6.906;2024-02-15T08:49:24;4.77;;;2.77;;
18716;SDS011;9487;50.892;6.906;2024-02-15T08:51:55;7.83;;;3.30;;
18716;SDS011;9487;50.892;6.906;2024-02-15T08:54:30;7.00;;;3.40;;
18716;SDS011;9487;50.892;6.906;2024-02-15T08:57:00;6.63;;;3.00;;
18716;SDS011;9487;50.892;6.906;2024-02-15T08:59:42;6.37;;;5.40;;
18716;SDS011;9487;50.892;6.906;2024-02-15T09:02:12;7.47;;;5.47;;
18716;SDS011;9487;50.892;6.906;2024-02-15T09:04:40;9.47;;;4.17;;
18716;SDS011;9487;50.892;6.906;2024-02-15T09:07:11;9.43;;;4.00;;
18716;SDS011;9487;50.892;6.906;2024-02-15T09:09:39;6.57;;;3.47;;
18716;SDS011;9487;50.892;6.906;2024-02-15T09:12:07;8.43;;;3.30;;
18716;SDS011;9487;50.892;6.906;2024-02-15T09:14:35;5.43;;;3.50;;
18716;SDS011;9487;50.892;6.906;2024-02-15T09:17:04;6.07;;;3.40;;
18716;SDS011;9487;50.892;6.906;2024-02-15T09:19:46;5.07;;;3.43;;
18716;SDS011;9487;50.892;6.906;2024-02-15T09:22:15;6.33;;;3.67;;
18716;SDS011;9487;50.892;6.906;2024-02-15T09:24:49;7.83;;;3.77;;
18716;SDS011;9487;50.892;6.906;2024-02-15T09:27:16;7.13;;;3.90;;
18716;SDS011;9487;50.892;6.906;2024-02-15T09:29:44;7.93;;;3.60;;
18716;SDS011;9487;50.892;6.906;2024-02-15T09:32:11;5.30;;;3.40;;
18716;SDS011;9487;50.892;6.906;2024-02-15T09:34:40;7.73;;;3.70;;
18716;SDS011;9487;50.892;6.906;2024-02-15T09:37:10;5.90;;;3.83;;
18716;SDS011;9487;50.892;6.906;2024-02-15T09:39:38;5.93;;;3.33;;
18716;SDS011;9487;50.892;6.906;2024-02-15T09:42:05;6.07;;;3.47;;
18716;SDS011;9487;50.892;6.906;2024-02-15T09:44:35;8.10;;;3.40;;
18716;SDS011;9487;50.892;6.906;2024-02-15T09:47:05;5.40;;;2.67;;
18716;SDS011;9487;50.892;6.906;2024-02-15T09:49:35;7.17;;;2.87;;
18716;SDS011;9487;50.892;6.906;2024-02-15T09:52:06;7.20;;;2.90;;
18716;SDS011;9487;50.892;6.906;2024-02-15T09:54:38;5.73;;;2.67;;
18716;SDS011;9487;50.892;6.906;2024-02-15T09:57:08;7.07;;;2.80;;
18716;SDS011;9487;50.892;6.906;2024-02-15T09:59:36;7.70;;;2.50;;
18716;SDS011;9487;50.892;6.906;2024-02-15T10:02:07;6.30;;;2.43;;
18716;SDS011;9487;50.892;6.906;2024-02-15T10:04:48;7.70;;;3.17;;
18716;SDS011;9487;50.892;6.906;2024-02-15T10:07:29;6.30;;;2.60;;
18716;SDS011;9487;50.892;6.906;2024-02-15T10:09:56;7.97;;;2.93;;
18716;SDS011;9487;50.892;6.906;2024-02-15T10:12:43;7.00;;;2.53;;
18716;SDS011;9487;50.892;6.906;2024-02-15T10:15:18;3.97;;;2.50;;
18716;SDS011;9487;50.892;6.906;2024-02-15T10:17:54;5.63;;;2.47;;
18716;SDS011;9487;50.892;6.906;2024-02-15T10:20:25;5.40;;;2.07;;
18716;SDS011;9487;50.892;6.906;2024-02-15T10:25:47;6.20;;;2.40;;
18716;SDS011;9487;50.892;6.906;2024-02-15T10:28:21;6.87;;;2.77;;
18716;SDS011;9487;50.892;6.906;2024-02-15T10:30:52;4.30;;;2.60;;
18716;SDS011;9487;50.892;6.906;2024-02-15T10:33:20;4.50;;;2.60;;
18716;SDS011;9487;50.892;6.906;2024-02-15T10:35:56;3.87;;;2.53;;
18716;SDS011;9487;50.892;6.906;2024-02-15T10:38:37;6.80;;;2.30;;
18716;SDS011;9487;50.892;6.906;2024-02-15T10:41:10;5.07;;;2.27;;
18716;SDS011;9487;50.892;6.906;2024-02-15T10:43:51;6.13;;;2.60;;
18716;SDS011;9487;50.892;6.906;2024-02-15T10:46:19;4.87;;;2.40;;
18716;SDS011;9487;50.892;6.906;2024-02-15T10:48:48;5.03;;;2.53;;
18716;SDS011;9487;50.892;6.906;2024-02-15T10:51:19;4.20;;;2.40;;
18716;SDS011;9487;50.892;6.906;2024-02-15T10:56:43;7.13;;;2.67;;
18716;SDS011;9487;50.892;6.906;2024-02-15T10:59:26;7.10;;;2.37;;
18716;SDS011;9487;50.892;6.906;2024-02-15T11:02:18;5.03;;;2.20;;
18716;SDS011;9487;50.892;6.906;2024-02-15T11:05:06;5.73;;;2.67;;
18716;SDS011;9487;50.892;6.906;2024-02-15T11:07:39;3.47;;;2.17;;
18716;SDS011;9487;50.892;6.906;2024-02-15T11:10:14;4.07;;;2.17;;
18716;SDS011;9487;50.892;6.906;2024-02-15T11:12:43;4.93;;;2.23;;
18716;SDS011;9487;50.892;6.906;2024-02-15T11:15:43;5.43;;;2.20;;
18716;SDS011;9487;50.892;6.906;2024-02-15T11:18:44;6.57;;;2.67;;
18716;SDS011;9487;50.892;6.906;2024-02-15T11:24:27;5.10;;;2.63;;
18716;SDS011;9487;50.892;6.906;2024-02-15T11:30:00;3.70;;;2.30;;
18716;SDS011;9487;50.892;6.906;2024-02-15T11:32:53;5.00;;;2.53;;
18716;SDS011;9487;50.892;6.906;2024-02-15T11:35:22;4.43;;;2.67;;
18716;SDS011;9487;50.892;6.906;2024-02-15T11:37:56;5.40;;;2.73;;
18716;SDS011;9487;50.892;6.906;2024-02-15T11:40:25;5.63;;;2.63;;
18716;SDS011;9487;50.892;6.906;2024-02-15T11:43:02;4.40;;;2.30;;
18716;SDS011;9487;50.892;6.906;2024-02-15T11:45:43;5.50;;;2.43;;
18716;SDS011;9487;50.892;6.906;2024-02-15T11:48:24;5.53;;;2.70;;
18716;SDS011;9487;50.892;6.906;2024-02-15T11:50:52;6.97;;;3.60;;
18716;SDS011;9487;50.892;6.906;2024-02-15T11:53:33;5.67;;;2.63;;
18716;SDS011;9487;50.892;6.906;2024-02-15T11:56:15;5.80;;;2.57;;
18716;SDS011;9487;50.892;6.906;2024-02-15T11:59:05;4.87;;;2.93;;
18716;SDS011;9487;50.892;6.906;2024-02-15T12:01:45;4.03;;;2.60;;
18716;SDS011;9487;50.892;6.906;2024-02-15T12:04:33;3.37;;;2.30;;
18716;SDS011;9487;50.892;6.906;2024-02-15T12:07:19;5.60;;;2.60;;
18716;SDS011;9487;50.892;6.906;2024-02-15T12:10:05;4.83;;;2.60;;
18716;SDS011;9487;50.892;6.906;2024-02-15T12:12:59;4.10;;;2.50;;
18716;SDS011;9487;50.892;6.906;2024-02-15T12:15:56;3.97;;;2.63;;
18716;SDS011;9487;50.892;6.906;2024-02-15T12:18:41;6.27;;;2.73;;
18716;SDS011;9487;50.892;6.906;2024-02-15T12:21:23;6.60;;;3.10;;
18716;SDS011;9487;50.892;6.906;2024-02-15T12:23:56;7.30;;;3.33;;
18716;SDS011;9487;50.892;6.906;2024-02-15T12:26:38;4.80;;;2.80;;
18716;SDS011;9487;50.892;6.906;2024-02-15T12:29:24;6.87;;;2.90;;
18716;SDS011;9487;50.892;6.906;2024-02-15T12:32:08;9.53;;;3.93;;
18716;SDS011;9487;50.892;6.906;2024-02-15T12:34:40;5.27;;;2.87;;
18716;SDS011;9487;50.892;6.906;2024-02-15T12:37:34;5.37;;;3.07;;
18716;SDS011;9487;50.892;6.906;2024-02-15T12:40:19;4.97;;;2.70;;
18716;SDS011;9487;50.892;6.906;2024-02-15T12:43:10;6.53;;;3.17;;
18716;SDS011;9487;50.892;6.906;2024-02-15T12:45:58;5.30;;;2.77;;
18716;SDS011;9487;50.892;6.906;2024-02-15T12:58:38;5.30;;;2.77;;
18716;SDS011;9487;50.892;6.906;2024-02-15T13:01:29;7.27;;;2.73;;
18716;SDS011;9487;50.892;6.906;2024-02-15T13:04:24;5.53;;;2.90;;
18716;SDS011;9487;50.892;6.906;2024-02-15T13:07:05;8.90;;;3.40;;
18716;SDS011;9487;50.892;6.906;2024-02-15T13:09:47;5.40;;;3.00;;
18716;SDS011;9487;50.892;6.906;2024-02-15T13:12:33;6.57;;;3.00;;
18716;SDS011;9487;50.892;6.906;2024-02-15T13:15:12;6.40;;;3.13;;
18716;SDS011;9487;50.892;6.906;2024-02-15T13:17:55;6.23;;;2.90;;
18716;SDS011;9487;50.892;6.906;2024-02-15T13:20:38;4.30;;;2.60;;
18716;SDS011;9487;50.892;6.906;2024-02-15T13:23:18;4.83;;;2.80;;
18716;SDS011;9487;50.892;6.906;2024-02-15T13:26:00;3.70;;;2.53;;
18716;SDS011;9487;50.892;6.906;2024-02-15T13:28:45;4.93;;;2.90;;
18716;SDS011;9487;50.892;6.906;2024-02-15T13:31:27;7.27;;;3.87;;
18716;SDS011;9487;50.892;6.906;2024-02-15T13:34:14;3.67;;;3.10;;
18716;SDS011;9487;50.892;6.906;2024-02-15T13:36:44;5.17;;;3.00;;
18716;SDS011;9487;50.892;6.906;2024-02-15T13:39:26;4.77;;;2.70;;
18716;SDS011;9487;50.892;6.906;2024-02-15T13:41:58;4.50;;;2.80;;
18716;SDS011;9487;50.892;6.906;2024-02-15T13:44:39;5.43;;;2.67;;
18716;SDS011;9487;50.892;6.906;2024-02-15T13:47:22;7.73;;;2.50;;
18716;SDS011;9487;50.892;6.906;2024-02-15T13:50:03;4.07;;;2.63;;
18716;SDS011;9487;50.892;6.906;2024-02-15T13:52:39;4.60;;;2.80;;
18716;SDS011;9487;50.892;6.906;2024-02-15T13:55:22;5.77;;;2.20;;
18716;SDS011;9487;50.892;6.906;2024-02-15T13:57:57;5.90;;;2.30;;
18716;SDS011;9487;50.892;6.906;2024-02-15T14:03:43;4.70;;;2.20;;
18716;SDS011;9487;50.892;6.906;2024-02-15T14:06:14;5.80;;;2.40;;
18716;SDS011;9487;50.892;6.906;2024-02-15T14:08:44;4.87;;;2.43;;
18716;SDS011;9487;50.892;6.906;2024-02-15T14:11:25;5.37;;;2.20;;
18716;SDS011;9487;50.892;6.906;2024-02-15T14:14:07;4.70;;;2.17;;
18716;SDS011;9487;50.892;6.906;2024-02-15T14:16:36;4.07;;;1.97;;
18716;SDS011;9487;50.892;6.906;2024-02-15T14:19:04;2.97;;;2.20;;
18716;SDS011;9487;50.892;6.906;2024-02-15T14:21:31;5.23;;;2.20;;
18716;SDS011;9487;50.892;6.906;2024-02-15T14:24:05;6.93;;;2.50;;
18716;SDS011;9487;50.892;6.906;2024-02-15T14:26:35;3.20;;;2.00;;
18716;SDS011;9487;50.892;6.906;2024-02-15T14:29:11;2.60;;;1.83;;
18716;SDS011;9487;50.892;6.906;2024-02-15T14:31:41;2.80;;;1.87;;
18716;SDS011;9487;50.892;6.906;2024-02-15T14:34:26;3.40;;;2.10;;
18716;SDS011;9487;50.892;6.906;2024-02-15T14:36:55;6.57;;;2.57;;
18716;SDS011;9487;50.892;6.906;2024-02-15T14:42:07;5.07;;;2.23;;
18716;SDS011;9487;50.892;6.906;2024-02-15T14:44:37;4.77;;;1.90;;
18716;SDS011;9487;50.892;6.906;2024-02-15T14:47:05;4.17;;;2.20;;
18716;SDS011;9487;50.892;6.906;2024-02-15T14:49:33;3.10;;;1.67;;
18716;SDS011;9487;50.892;6.906;2024-02-15T14:52:01;2.80;;;1.90;;
18716;SDS011;9487;50.892;6.906;2024-02-15T14:54:28;4.13;;;2.00;;
18716;SDS011;9487;50.892;6.906;2024-02-15T14:56:55;3.97;;;1.70;;
18716;SDS011;9487;50.892;6.906;2024-02-15T14:59:22;3.80;;;2.03;;
18716;SDS011;9487;50.892;6.906;2024-02-15T15:01:49;8.07;;;2.17;;
18716;SDS011;9487;50.892;6.906;2024-02-15T15:04:18;7.43;;;1.73;;
18716;SDS011;9487;50.892;6.906;2024-02-15T15:06:45;3.17;;;1.70;;
18716;SDS011;9487;50.892;6.906;2024-02-15T15:09:29;2.83;;;1.97;;
18716;SDS011;9487;50.892;6.906;2024-02-15T15:12:14;3.10;;;1.70;;
18716;SDS011;9487;50.892;6.906;2024-02-15T15:14:58;3.93;;;2.20;;
18716;SDS011;9487;50.892;6.906;2024-02-15T15:17:26;4.03;;;1.90;;
18716;SDS011;9487;50.892;6.906;2024-02-15T15:19:54;4.80;;;1.90;;
18716;SDS011;9487;50.892;6.906;2024-02-15T15:22:21;3.17;;;1.60;;
18716;SDS011;9487;50.892;6.906;2024-02-15T15:24:49;3.13;;;1.77;;
18716;SDS011;9487;50.892;6.906;2024-02-15T15:27:17;4.63;;;1.73;;
18716;SDS011;9487;50.892;6.906;2024-02-15T15:29:44;4.63;;;2.00;;
18716;SDS011;9487;50.892;6.906;2024-02-15T15:32:11;3.10;;;1.90;;
18716;SDS011;9487;50.892;6.906;2024-02-15T15:34:40;2.37;;;1.50;;
18716;SDS011;9487;50.892;6.906;2024-02-15T15:37:09;6.30;;;1.50;;
18716;SDS011;9487;50.892;6.906;2024-02-15T15:39:37;3.27;;;1.90;;
18716;SDS011;9487;50.892;6.906;2024-02-15T15:42:04;2.80;;;1.70;;
18716;SDS011;9487;50.892;6.906;2024-02-15T15:44:32;4.97;;;1.80;;
18716;SDS011;9487;50.892;6.906;2024-02-15T15:46:59;2.23;;;1.50;;
18716;SDS011;9487;50.892;6.906;2024-02-15T15:49:26;3.70;;;1.80;;
18716;SDS011;9487;50.892;6.906;2024-02-15T15:51:55;3.83;;;1.77;;
18716;SDS011;9487;50.892;6.906;2024-02-15T15:54:26;6.83;;;1.83;;
18716;SDS011;9487;50.892;6.906;2024-02-15T15:56:54;3.13;;;1.77;;
18716;SDS011;9487;50.892;6.906;2024-02-15T15:59:21;4.90;;;1.90;;
18716;SDS011;9487;50.892;6.906;2024-02-15T16:01:48;4.60;;;2.03;;
18716;SDS011;9487;50.892;6.906;2024-02-15T16:04:16;4.43;;;1.70;;
18716;SDS011;9487;50.892;6.906;2024-02-15T16:06:44;4.37;;;1.80;;